Time;durP1;ratioP1;P1;durP2;ratioP2;P2;SDS_P1;SDS_P2;PMS_P1;PMS_P2;Temp;Humidity;BMP_temperature;BMP_pressure;BME280_temperature;BME280_humidity;BME280_pressure;Samples;Min_cycle;Max_cycle;Signal;HPM_P1;HPM_P2
2023/08/15 00:01:21;;;;;;;0.93;0.70;;;13.80;76.80;;;;;;5053168;28;20029;-78
2023/08/15 00:03:50;;;;;;;1.27;0.80;;;13.80;77.00;;;;;;5053103;28;20398;-79
2023/08/15 00:06:20;;;;;;;0.50;0.50;;;13.90;76.60;;;;;;5053383;28;20021;-79
2023/08/15 00:08:54;;;;;;;1.38;0.65;;;14.10;77.40;;;;;;5053033;28;20036;-78
2023/08/15 00:11:24;;;;;;;2.00;0.70;;;14.40;77.90;;;;;;5053206;28;20108;-78
2023/08/15 00:13:55;;;;;;;3.35;0.85;;;14.50;77.00;;;;;;5052592;28;20025;-79
2023/08/15 00:16:23;;;;;;;0.60;0.60;;;14.50;75.60;;;;;;5052560;28;20032;-78
2023/08/15 00:18:50;;;;;;;1.30;0.80;;;14.60;76.10;;;;;;5052687;28;20491;-78
2023/08/15 00:21:18;;;;;;;1.75;0.50;;;14.70;75.10;;;;;;5052855;28;20082;-80
2023/08/15 00:23:45;;;;;;;2.38;0.60;;;14.70;75.20;;;;;;5052715;28;20028;-79
2023/08/15 00:26:12;;;;;;;2.92;0.80;;;15.00;75.00;;;;;;5052833;28;20095;-79
2023/08/15 00:28:40;;;;;;;1.08;0.55;;;15.00;74.70;;;;;;5052388;28;20092;-79
2023/08/15 00:31:07;;;;;;;2.40;0.60;;;15.10;75.50;;;;;;5052604;28;20112;-79
2023/08/15 00:33:35;;;;;;;1.42;0.68;;;15.20;74.60;;;;;;5052126;28;20110;-79
2023/08/15 00:36:04;;;;;;;0.60;0.60;;;15.20;74.60;;;;;;5052575;28;20040;-79
2023/08/15 00:38:33;;;;;;;3.28;0.60;;;15.20;75.00;;;;;;5052698;28;20021;-79
2023/08/15 00:41:00;;;;;;;1.50;0.70;;;15.30;75.00;;;;;;5052523;28;20402;-79
2023/08/15 00:43:27;;;;;;;2.03;0.57;;;15.30;74.40;;;;;;5052569;28;20434;-79
2023/08/15 00:45:55;;;;;;;3.20;0.80;;;15.30;74.30;;;;;;5052250;28;20075;-78
2023/08/15 00:48:24;;;;;;;5.25;0.50;;;15.30;75.20;;;;;;5052380;28;20017;-79
2023/08/15 00:50:51;;;;;;;3.10;0.70;;;15.30;74.80;;;;;;5052576;28;20025;-78
2023/08/15 00:53:20;;;;;;;1.17;0.60;;;15.30;75.00;;;;;;5052394;28;20416;-79
2023/08/15 00:55:48;;;;;;;1.45;0.55;;;15.20;74.40;;;;;;5052073;28;20035;-79
2023/08/15 00:58:16;;;;;;;3.17;0.70;;;15.20;74.50;;;;;;5052329;28;20017;-79
2023/08/15 01:00:44;;;;;;;2.33;0.77;;;15.30;74.40;;;;;;5052433;28;20043;-80
2023/08/15 01:03:12;;;;;;;4.00;0.80;;;15.50;74.80;;;;;;5051893;28;20029;-80
2023/08/15 01:05:41;;;;;;;2.90;0.70;;;15.50;74.70;;;;;;5050691;28;20029;-79
2023/08/15 01:08:09;;;;;;;3.15;0.70;;;15.60;74.30;;;;;;5050908;28;20017;-79
2023/08/15 01:10:39;;;;;;;2.95;0.93;;;15.60;74.70;;;;;;5051245;28;20033;-78
2023/08/15 01:13:27;;;;;;;1.95;0.65;;;15.70;75.10;;;;;;5051430;28;20076;-79
2023/08/15 01:15:54;;;;;;;1.80;0.90;;;15.70;74.80;;;;;;5051249;28;20094;-79
2023/08/15 01:18:30;;;;;;;4.03;0.55;;;15.70;74.40;;;;;;5051087;28;20116;-78
2023/08/15 01:20:59;;;;;;;1.25;0.70;;;15.80;74.10;;;;;;5052114;28;20029;-79
2023/08/15 01:23:38;;;;;;;3.08;0.82;;;15.90;73.70;;;;;;5052214;28;20017;-79
2023/08/15 01:26:07;;;;;;;2.60;0.88;;;16.00;72.80;;;;;;5053589;28;20032;-78
2023/08/15 01:28:35;;;;;;;2.78;0.60;;;16.00;72.60;;;;;;5055909;28;20029;-79
2023/08/15 01:31:34;;;;;;;1.48;0.40;;;16.10;72.50;;;;;;5055931;28;20025;-79
2023/08/15 01:34:02;;;;;;;2.40;0.60;;;16.20;71.70;;;;;;5055608;28;20053;-77
2023/08/15 01:36:37;;;;;;;1.35;0.50;;;16.20;71.40;;;;;;5055785;28;20175;-79
2023/08/15 01:39:07;;;;;;;3.35;0.60;;;16.20;71.20;;;;;;5055661;28;20025;-78
2023/08/15 01:41:39;;;;;;;3.28;0.65;;;16.20;71.50;;;;;;5055589;28;20033;-78
2023/08/15 01:44:11;;;;;;;1.70;0.73;;;16.20;71.00;;;;;;5055772;28;20027;-78
2023/08/15 01:46:38;;;;;;;1.45;0.50;;;16.20;71.60;;;;;;5055648;28;20037;-78
2023/08/15 01:49:05;;;;;;;5.03;0.70;;;16.20;71.90;;;;;;5055697;28;20024;-79
2023/08/15 01:51:33;;;;;;;3.03;0.77;;;16.00;72.00;;;;;;5055413;28;20490;-78
2023/08/15 01:54:00;;;;;;;4.18;1.08;;;15.90;71.00;;;;;;5055358;28;20036;-78
2023/08/15 01:56:27;;;;;;;3.97;0.60;;;15.90;71.50;;;;;;5055567;28;20033;-81
2023/08/15 01:58:55;;;;;;;4.30;0.60;;;16.00;71.30;;;;;;5055560;28;20033;-78
2023/08/15 02:01:22;;;;;;;2.38;0.50;;;16.00;71.20;;;;;;5055511;28;20032;-78
2023/08/15 02:03:49;;;;;;;3.17;0.55;;;16.00;70.40;;;;;;5055112;28;20107;-78
2023/08/15 02:06:18;;;;;;;1.40;0.50;;;16.10;70.30;;;;;;5055450;28;20017;-79
2023/08/15 02:08:46;;;;;;;3.47;0.50;;;16.10;69.70;;;;;;5055408;28;20502;-79
2023/08/15 02:11:13;;;;;;;1.80;0.50;;;16.20;70.30;;;;;;5055330;28;20028;-80
2023/08/15 02:13:40;;;;;;;2.58;0.60;;;16.20;70.30;;;;;;5054867;28;20029;-79
2023/08/15 02:16:08;;;;;;;2.13;0.63;;;16.20;69.80;;;;;;5055198;28;20028;-79
2023/08/15 02:18:35;;;;;;;0.85;0.50;;;16.20;70.30;;;;;;5054735;28;20041;-78
2023/08/15 02:21:03;;;;;;;1.50;0.40;;;16.10;70.40;;;;;;5055105;28;20033;-78
2023/08/15 02:23:30;;;;;;;2.78;0.90;;;16.10;71.00;;;;;;5054884;28;20025;-78
2023/08/15 02:25:57;;;;;;;1.92;0.60;;;16.10;71.30;;;;;;5054932;28;20025;-78
2023/08/15 02:28:25;;;;;;;1.92;0.60;;;16.20;71.10;;;;;;5054908;28;20103;-78
2023/08/15 02:30:53;;;;;;;4.65;0.70;;;16.20;71.00;;;;;;5054845;28;20025;-78
2023/08/15 02:33:21;;;;;;;1.85;0.50;;;16.20;71.00;;;;;;5054728;28;20471;-79
2023/08/15 02:35:50;;;;;;;3.28;0.50;;;16.20;70.10;;;;;;5054729;28;20116;-78
2023/08/15 02:38:18;;;;;;;2.40;0.70;;;16.20;70.40;;;;;;5054019;28;20111;-80
2023/08/15 02:40:45;;;;;;;2.00;0.50;;;16.20;70.50;;;;;;5054542;28;20033;-78
2023/08/15 02:43:12;;;;;;;2.67;0.50;;;16.20;70.80;;;;;;5054546;28;20032;-78
2023/08/15 02:45:40;;;;;;;3.80;0.60;;;16.20;70.70;;;;;;5054284;28;20029;-81
2023/08/15 02:48:07;;;;;;;1.90;0.50;;;16.20;70.90;;;;;;5054513;28;20032;-78
2023/08/15 02:50:44;;;;;;;2.45;0.50;;;16.20;71.00;;;;;;5054598;28;20021;-77
2023/08/15 02:53:18;;;;;;;5.55;0.57;;;16.20;70.70;;;;;;5037193;28;20048;-78
2023/08/15 02:55:49;;;;;;;4.78;0.57;;;16.20;69.50;;;;;;5054130;28;20032;-79
2023/08/15 02:58:20;;;;;;;3.03;0.60;;;16.10;69.80;;;;;;5052975;28;20402;-79
2023/08/15 03:00:48;;;;;;;5.75;0.73;;;16.10;69.70;;;;;;5054362;28;20262;-78
2023/08/15 03:03:21;;;;;;;3.63;0.77;;;16.10;70.30;;;;;;5053467;28;20045;-78
2023/08/15 03:05:51;;;;;;;1.95;0.52;;;16.10;70.30;;;;;;5053653;28;20037;-77
2023/08/15 03:08:18;;;;;;;4.00;0.60;;;16.10;70.60;;;;;;5069574;28;20115;-78
2023/08/15 03:10:46;;;;;;;4.03;0.88;;;16.00;70.40;;;;;;5052755;28;20086;-79
2023/08/15 03:13:24;;;;;;;3.25;0.80;;;16.00;70.60;;;;;;5054083;28;20017;-78
2023/08/15 03:15:58;;;;;;;1.95;0.73;;;15.90;70.90;;;;;;5054005;28;20515;-78
2023/08/15 03:18:32;;;;;;;4.05;0.70;;;15.90;71.20;;;;;;5053517;28;20045;-78
2023/08/15 03:21:03;;;;;;;2.38;0.88;;;16.00;71.30;;;;;;5052779;28;20108;-78
2023/08/15 03:23:31;;;;;;;4.50;1.02;;;15.90;71.00;;;;;;5052874;28;20570;-78
2023/08/15 03:26:03;;;;;;;3.42;0.77;;;16.00;71.20;;;;;;5069183;28;20040;-78
2023/08/15 03:28:31;;;;;;;4.63;0.88;;;16.00;71.10;;;;;;5053878;28;20025;-78
2023/08/15 03:31:04;;;;;;;3.83;0.98;;;16.10;71.40;;;;;;5053854;28;20029;-78
2023/08/15 03:33:33;;;;;;;3.78;1.05;;;16.10;71.60;;;;;;5053034;28;20463;-78
2023/08/15 03:36:02;;;;;;;2.72;0.77;;;16.20;71.00;;;;;;5053262;28;20029;-78
2023/08/15 03:38:29;;;;;;;2.28;0.70;;;16.20;70.80;;;;;;5053644;28;20042;-77
2023/08/15 03:41:08;;;;;;;4.10;0.60;;;16.20;70.80;;;;;;5053397;28;20493;-79
2023/08/15 03:43:36;;;;;;;3.92;0.82;;;16.20;70.40;;;;;;5053296;28;20025;-78
2023/08/15 03:46:08;;;;;;;3.78;0.80;;;16.20;70.70;;;;;;5053242;28;20048;-78
2023/08/15 03:48:36;;;;;;;3.65;0.68;;;16.20;70.60;;;;;;5053026;28;20025;-79
2023/08/15 03:51:05;;;;;;;4.85;0.90;;;16.10;70.70;;;;;;5068003;28;20037;-79
2023/08/15 03:53:33;;;;;;;2.15;0.50;;;16.00;71.10;;;;;;5052991;28;20021;-78
2023/08/15 03:56:01;;;;;;;3.28;0.57;;;15.90;71.50;;;;;;5053121;28;20029;-81
2023/08/15 03:58:29;;;;;;;3.05;0.60;;;15.90;71.20;;;;;;5053261;28;20056;-79
2023/08/15 04:00:58;;;;;;;4.07;0.85;;;15.70;71.00;;;;;;5052900;28;20028;-78
2023/08/15 04:03:27;;;;;;;2.63;0.90;;;15.70;71.60;;;;;;5068120;28;20033;-82
2023/08/15 04:05:59;;;;;;;4.55;0.93;;;15.70;71.30;;;;;;5052962;28;20079;-78
2023/08/15 04:08:34;;;;;;;3.42;0.80;;;15.70;71.60;;;;;;5052987;28;20025;-78
2023/08/15 04:11:06;;;;;;;1.17;0.80;;;15.70;71.50;;;;;;5067423;28;20032;-79
2023/08/15 04:13:43;;;;;;;4.50;1.00;;;15.70;71.80;;;;;;5052628;28;20057;-79
2023/08/15 04:16:19;;;;;;;4.82;0.80;;;15.90;71.60;;;;;;5052709;28;20573;-78
2023/08/15 04:18:48;;;;;;;4.78;0.95;;;16.00;71.10;;;;;;5051289;28;20041;-79
2023/08/15 04:21:16;;;;;;;1.70;0.60;;;16.00;71.30;;;;;;5067293;28;20044;-78
2023/08/15 04:23:46;;;;;;;6.60;1.00;;;16.10;71.10;;;;;;5051474;28;20065;-78
2023/08/15 04:26:13;;;;;;;4.43;0.90;;;16.20;70.70;;;;;;5051464;28;20479;-77
2023/08/15 04:28:46;;;;;;;6.00;1.60;;;16.20;71.00;;;;;;5052727;28;20059;-78
2023/08/15 04:31:14;;;;;;;2.83;0.60;;;16.30;71.00;;;;;;5052339;28;20021;-78
2023/08/15 04:33:42;;;;;;;2.28;0.63;;;16.30;70.90;;;;;;5050912;28;20387;-77
2023/08/15 04:36:13;;;;;;;2.40;0.70;;;16.30;71.20;;;;;;5050975;28;20128;-77
2023/08/15 04:38:41;;;;;;;2.33;0.60;;;16.40;70.90;;;;;;5051471;28;20025;-81
2023/08/15 04:41:12;;;;;;;1.75;0.52;;;16.40;70.70;;;;;;5052500;28;20036;-78
2023/08/15 04:43:40;;;;;;;2.40;0.60;;;16.40;71.00;;;;;;5051007;28;20527;-78
2023/08/15 04:46:15;;;;;;;3.55;1.10;;;16.50;71.00;;;;;;5052332;28;20099;-81
2023/08/15 04:48:43;;;;;;;1.77;0.65;;;16.50;71.10;;;;;;5052508;28;20021;-78
2023/08/15 04:51:11;;;;;;;3.10;0.60;;;16.50;70.90;;;;;;5067809;28;20029;-76
2023/08/15 04:53:44;;;;;;;2.97;0.57;;;16.50;70.60;;;;;;5052046;28;20100;-78
2023/08/15 04:56:15;;;;;;;2.42;0.60;;;16.40;70.30;;;;;;5052412;28;20029;-76
2023/08/15 04:58:43;;;;;;;4.18;1.30;;;16.40;70.40;;;;;;5052547;28;20025;-82
2023/08/15 05:01:10;;;;;;;3.00;0.88;;;16.30;70.20;;;;;;5050722;28;20041;-77
2023/08/15 05:03:41;;;;;;;1.70;0.47;;;16.30;70.50;;;;;;5056145;28;20021;-77
2023/08/15 05:06:11;;;;;;;1.77;0.47;;;16.20;70.30;;;;;;5056301;28;20033;-77
2023/08/15 05:08:44;;;;;;;3.65;0.88;;;16.20;70.60;;;;;;5056216;28;20301;-76
2023/08/15 05:11:14;;;;;;;2.75;0.80;;;16.20;70.90;;;;;;5054794;28;20060;-82
2023/08/15 05:13:43;;;;;;;2.00;0.73;;;16.20;70.90;;;;;;5055949;28;20029;-78
2023/08/15 05:16:10;;;;;;;5.20;1.00;;;16.20;70.90;;;;;;5056055;28;20029;-77
2023/08/15 05:18:38;;;;;;;5.13;0.70;;;16.20;71.00;;;;;;5055964;28;20360;-77
2023/08/15 05:21:07;;;;;;;4.05;0.70;;;16.10;70.80;;;;;;5055852;28;20471;-77
2023/08/15 05:23:40;;;;;;;5.13;0.80;;;16.00;71.20;;;;;;5070019;28;20118;-77
2023/08/15 05:26:08;;;;;;;2.75;0.75;;;16.10;71.60;;;;;;5038228;28;20040;-77
2023/08/15 05:28:36;;;;;;;2.42;0.60;;;16.00;71.70;;;;;;5071289;28;20033;-78
2023/08/15 05:31:06;;;;;;;1.20;0.60;;;16.00;71.50;;;;;;5055819;28;20486;-78
2023/08/15 05:33:35;;;;;;;4.15;0.70;;;16.00;71.60;;;;;;5054400;28;20110;-78
2023/08/15 05:36:02;;;;;;;2.67;0.70;;;16.00;71.40;;;;;;5055653;28;20029;-78
2023/08/15 05:38:30;;;;;;;2.25;0.98;;;16.00;71.60;;;;;;5055818;28;20021;-78
2023/08/15 05:40:59;;;;;;;2.35;0.70;;;16.00;71.50;;;;;;5055686;28;20017;-77
2023/08/15 05:43:30;;;;;;;2.72;0.88;;;16.10;71.60;;;;;;5055688;28;20021;-77
2023/08/15 05:45:57;;;;;;;2.80;0.70;;;16.10;71.90;;;;;;5055152;28;20069;-77
2023/08/15 05:48:25;;;;;;;1.98;0.70;;;16.10;71.70;;;;;;5055672;28;20112;-77
2023/08/15 05:50:54;;;;;;;2.95;0.73;;;16.00;71.90;;;;;;5055531;28;20028;-77
2023/08/15 05:53:27;;;;;;;1.73;0.80;;;16.00;72.10;;;;;;5070293;28;20033;-77
2023/08/15 05:56:16;;;;;;;2.42;0.47;;;16.00;72.30;;;;;;5055280;28;20114;-77
2023/08/15 05:58:47;;;;;;;2.55;0.80;;;15.90;72.60;;;;;;5055373;28;20597;-79
2023/08/15 06:01:16;;;;;;;0.70;0.40;;;15.80;72.80;;;;;;5053866;28;20036;-78
2023/08/15 06:03:43;;;;;;;2.50;0.68;;;15.80;72.90;;;;;;5053854;28;20376;-76
2023/08/15 06:06:13;;;;;;;4.18;0.80;;;15.80;73.00;;;;;;5055232;28;20036;-77
2023/08/15 06:08:42;;;;;;;1.75;0.50;;;15.70;73.00;;;;;;5053834;28;20441;-78
2023/08/15 06:11:16;;;;;;;3.45;0.60;;;15.70;73.30;;;;;;5055094;28;20108;-78
2023/08/15 06:13:50;;;;;;;2.05;0.50;;;15.70;73.10;;;;;;5052548;28;20068;-78
2023/08/15 06:16:17;;;;;;;4.07;0.98;;;15.60;73.00;;;;;;5054801;28;20029;-78
2023/08/15 06:18:48;;;;;;;4.50;0.60;;;15.60;73.10;;;;;;5054638;28;20503;-78
2023/08/15 06:21:16;;;;;;;4.43;0.85;;;15.60;73.40;;;;;;5053600;28;20119;-79
2023/08/15 06:23:44;;;;;;;3.03;0.63;;;15.60;73.80;;;;;;5053891;28;20083;-77
2023/08/15 06:26:12;;;;;;;3.75;0.75;;;15.50;73.80;;;;;;5069216;28;20435;-81
2023/08/15 06:28:41;;;;;;;2.92;0.68;;;15.50;74.00;;;;;;5053431;28;20064;-78
2023/08/15 06:31:08;;;;;;;1.52;0.60;;;15.40;73.70;;;;;;5069873;28;20099;-78
2023/08/15 06:33:36;;;;;;;3.20;0.68;;;15.40;73.80;;;;;;5054391;28;20074;-78
2023/08/15 06:36:04;;;;;;;2.72;0.95;;;15.40;74.00;;;;;;5069296;28;20037;-80
2023/08/15 06:38:34;;;;;;;1.80;0.77;;;15.30;74.10;;;;;;5054364;28;20483;-81
2023/08/15 06:41:03;;;;;;;2.25;0.70;;;15.30;74.20;;;;;;5054286;28;20094;-79
2023/08/15 06:43:31;;;;;;;4.00;0.60;;;15.20;74.30;;;;;;5054274;28;20091;-79
2023/08/15 06:45:58;;;;;;;3.05;0.60;;;15.20;74.50;;;;;;5054399;28;20021;-79
2023/08/15 06:48:26;;;;;;;3.42;0.57;;;15.20;74.60;;;;;;5054290;28;20017;-79
2023/08/15 06:50:53;;;;;;;2.83;0.57;;;15.20;74.70;;;;;;5054063;28;20108;-79
2023/08/15 06:53:21;;;;;;;4.90;0.73;;;15.10;74.80;;;;;;5054270;28;20032;-80
2023/08/15 06:55:51;;;;;;;2.38;0.68;;;15.10;75.00;;;;;;5053893;28;20131;-80
2023/08/15 06:58:19;;;;;;;4.07;0.60;;;15.00;74.90;;;;;;5054067;28;20214;-80
2023/08/15 07:00:47;;;;;;;2.55;0.50;;;15.00;75.10;;;;;;5054025;28;20029;-81
2023/08/15 07:03:19;;;;;;;2.35;0.65;;;15.00;75.30;;;;;;5054120;28;20017;-78
2023/08/15 07:05:47;;;;;;;0.95;0.45;;;14.90;75.50;;;;;;5052183;28;20025;-80
2023/08/15 07:08:15;;;;;;;5.57;0.75;;;14.90;75.50;;;;;;5053930;28;20078;-79
2023/08/15 07:10:42;;;;;;;2.25;0.65;;;14.90;75.60;;;;;;5054039;28;20025;-79
2023/08/15 07:13:09;;;;;;;2.90;0.40;;;14.90;75.60;;;;;;5053799;28;20025;-79
2023/08/15 07:15:38;;;;;;;1.80;0.63;;;14.90;75.60;;;;;;5053096;28;20036;-81
2023/08/15 07:18:06;;;;;;;3.67;0.80;;;14.80;75.70;;;;;;5053515;28;20025;-79
2023/08/15 07:20:33;;;;;;;2.17;0.60;;;14.80;75.60;;;;;;5053802;28;20025;-79
2023/08/15 07:23:01;;;;;;;3.53;0.50;;;14.80;75.60;;;;;;5053792;28;20025;-79
2023/08/15 07:25:28;;;;;;;2.10;0.60;;;14.80;75.50;;;;;;5053383;28;20048;-80
2023/08/15 07:27:56;;;;;;;3.22;1.00;;;14.70;75.60;;;;;;5053474;28;20025;-79
2023/08/15 07:30:23;;;;;;;1.40;0.50;;;14.70;75.40;;;;;;5053266;28;20023;-80
2023/08/15 07:32:51;;;;;;;2.08;0.60;;;14.70;75.40;;;;;;5053722;28;20029;-79
2023/08/15 07:35:18;;;;;;;4.47;0.70;;;14.70;75.30;;;;;;5053455;28;20047;-77
2023/08/15 07:37:46;;;;;;;0.50;0.40;;;14.70;75.10;;;;;;5053392;28;20024;-80
2023/08/15 07:40:20;;;;;;;3.95;0.52;;;14.70;75.30;;;;;;5053388;28;20029;-80
2023/08/15 07:42:53;;;;;;;6.07;1.05;;;14.70;75.60;;;;;;5053195;28;20031;-76
2023/08/15 07:45:21;;;;;;;3.08;1.15;;;14.70;75.80;;;;;;5053090;28;20039;-79
2023/08/15 07:47:52;;;;;;;2.70;0.70;;;14.60;76.10;;;;;;5053124;28;20029;-78
2023/08/15 07:50:30;;;;;;;2.55;0.82;;;14.70;76.30;;;;;;5053484;28;20021;-78
2023/08/15 07:52:58;;;;;;;4.72;1.10;;;14.60;76.40;;;;;;5053249;28;20013;-78
2023/08/15 07:55:27;;;;;;;2.85;0.90;;;14.70;76.50;;;;;;5052855;28;20128;-78
2023/08/15 07:57:54;;;;;;;1.35;0.70;;;14.70;76.70;;;;;;5053106;28;20469;-79
2023/08/15 08:00:22;;;;;;;3.63;0.80;;;14.60;76.70;;;;;;5053080;28;20070;-79
2023/08/15 08:02:50;;;;;;;2.45;0.73;;;14.70;76.70;;;;;;5053162;28;20403;-79
2023/08/15 08:05:17;;;;;;;3.75;0.82;;;14.60;76.80;;;;;;5053222;28;20496;-78
2023/08/15 08:07:45;;;;;;;2.25;0.68;;;14.50;76.60;;;;;;5052784;28;20031;-79
2023/08/15 08:10:13;;;;;;;1.83;0.93;;;14.50;76.70;;;;;;5053121;28;20025;-79
2023/08/15 08:12:41;;;;;;;3.00;0.80;;;14.50;76.80;;;;;;5053058;28;20164;-77
2023/08/15 08:15:08;;;;;;;2.05;0.60;;;14.50;77.00;;;;;;5052768;28;20040;-79
2023/08/15 08:17:36;;;;;;;1.52;0.85;;;14.50;76.90;;;;;;5051560;28;20498;-79
2023/08/15 08:20:08;;;;;;;3.50;0.90;;;14.50;77.00;;;;;;5052859;28;20049;-81
2023/08/15 08:22:35;;;;;;;2.53;0.90;;;14.50;77.00;;;;;;5052818;28;20418;-79
2023/08/15 08:25:21;;;;;;;5.05;0.90;;;14.50;77.10;;;;;;5052974;28;20078;-79
2023/08/15 08:27:49;;;;;;;3.78;0.98;;;14.50;77.10;;;;;;5052646;28;20031;-79
2023/08/15 08:30:21;;;;;;;2.88;0.88;;;14.50;77.20;;;;;;5052268;28;20021;-82
2023/08/15 08:32:50;;;;;;;2.63;1.00;;;14.40;77.30;;;;;;5052312;28;20051;-78
2023/08/15 08:35:18;;;;;;;2.88;0.70;;;14.40;77.40;;;;;;5052052;28;20093;-80
2023/08/15 08:37:49;;;;;;;1.20;0.88;;;14.40;77.70;;;;;;5052545;28;20074;-80
2023/08/15 08:40:20;;;;;;;3.38;1.00;;;14.40;77.90;;;;;;5052746;28;20447;-80
2023/08/15 08:42:47;;;;;;;1.95;0.75;;;14.40;78.00;;;;;;5051450;28;20032;-79
2023/08/15 08:45:15;;;;;;;5.13;1.38;;;14.40;78.10;;;;;;5052498;28;20483;-80
2023/08/15 08:47:44;;;;;;;3.15;1.20;;;14.50;78.00;;;;;;5052487;28;20067;-78
2023/08/15 08:50:12;;;;;;;6.80;1.38;;;14.40;77.90;;;;;;5052662;28;20113;-82
2023/08/15 08:52:41;;;;;;;3.33;0.90;;;14.40;78.00;;;;;;5051398;28;20029;-82
2023/08/15 08:55:11;;;;;;;1.90;0.90;;;14.40;78.00;;;;;;5051465;28;20043;-80
2023/08/15 08:57:40;;;;;;;6.78;1.23;;;14.30;77.90;;;;;;5052434;28;20025;-80
2023/08/15 09:00:09;;;;;;;4.40;0.90;;;14.30;78.10;;;;;;5050962;28;20356;-79
2023/08/15 09:02:37;;;;;;;3.63;1.40;;;14.40;78.00;;;;;;5067631;28;20025;-83
2023/08/15 09:05:12;;;;;;;3.65;1.35;;;14.30;78.10;;;;;;5052495;28;20036;-81
2023/08/15 09:07:40;;;;;;;4.93;1.00;;;14.30;78.20;;;;;;5052475;28;20036;-81
2023/08/15 09:10:08;;;;;;;4.13;1.40;;;14.30;78.30;;;;;;5052535;28;20028;-80
2023/08/15 09:12:40;;;;;;;5.25;1.30;;;14.30;78.50;;;;;;5051253;28;20028;-83
2023/08/15 09:15:15;;;;;;;1.27;1.00;;;14.20;78.30;;;;;;5052122;28;20078;-83
2023/08/15 09:17:44;;;;;;;2.25;1.13;;;14.20;78.40;;;;;;5051712;28;20025;-81
2023/08/15 09:20:16;;;;;;;3.47;1.15;;;14.20;78.60;;;;;;5052258;28;20068;-79
2023/08/15 09:22:47;;;;;;;3.25;1.35;;;14.20;78.80;;;;;;5052457;28;20108;-80
2023/08/15 09:25:17;;;;;;;3.70;1.55;;;14.20;78.70;;;;;;5052467;28;20021;-81
2023/08/15 09:27:45;;;;;;;2.55;1.10;;;14.20;78.80;;;;;;5052086;28;20033;-80
2023/08/15 09:30:17;;;;;;;1.83;1.23;;;14.20;79.00;;;;;;5052049;28;20104;-78
2023/08/15 09:32:45;;;;;;;3.30;1.60;;;14.20;79.20;;;;;;5052106;28;20032;-79
2023/08/15 09:35:16;;;;;;;4.95;2.58;;;14.20;79.20;;;;;;5052177;28;20082;-81
2023/08/15 09:37:46;;;;;;;4.63;2.92;;;14.20;79.20;;;;;;5051933;28;20025;-80
2023/08/15 09:40:16;;;;;;;20.88;10.60;;;14.20;79.30;;;;;;5052283;28;20029;-80
2023/08/15 09:42:44;;;;;;;12.38;6.38;;;14.20;79.30;;;;;;5052112;28;20021;-78
2023/08/15 09:45:16;;;;;;;24.90;13.32;;;14.20;79.30;;;;;;5051916;28;20013;-78
2023/08/15 09:47:45;;;;;;;17.35;8.02;;;14.20;79.40;;;;;;5054076;28;20479;-78
2023/08/15 09:50:14;;;;;;;13.43;7.25;;;14.20;79.30;;;;;;5055758;28;20028;-80
2023/08/15 09:52:46;;;;;;;13.95;5.78;;;14.20;79.30;;;;;;5055528;28;20086;-78
2023/08/15 09:55:15;;;;;;;8.10;4.47;;;14.20;79.20;;;;;;5055436;28;20087;-79
2023/08/15 09:57:44;;;;;;;11.90;3.88;;;14.20;79.20;;;;;;5054874;28;20087;-81
2023/08/15 10:00:13;;;;;;;10.40;4.60;;;14.10;79.30;;;;;;5055387;28;20025;-80
2023/08/15 10:03:20;;;;;;;8.13;3.92;;;14.10;79.30;;;;;;5055476;28;20075;-80
2023/08/15 10:05:54;;;;;;;8.40;3.93;;;14.10;79.50;;;;;;5054660;28;20483;-80
2023/08/15 10:08:22;;;;;;;5.38;2.90;;;14.10;79.40;;;;;;5054982;28;20104;-79
2023/08/15 10:10:51;;;;;;;7.47;3.50;;;14.10;79.50;;;;;;5055367;28;20024;-79
2023/08/15 10:13:49;;;;;;;6.15;3.35;;;14.00;79.40;;;;;;5055283;28;20040;-79
2023/08/15 10:16:17;;;;;;;6.72;2.75;;;14.00;79.30;;;;;;5046625;28;20037;-80
2023/08/15 10:18:54;;;;;;;4.97;2.30;;;14.10;79.60;;;;;;5054985;28;20041;-79
2023/08/15 10:21:26;;;;;;;4.57;1.90;;;14.10;79.50;;;;;;5055021;28;20021;-79
2023/08/15 10:23:55;;;;;;;5.30;2.38;;;14.10;79.20;;;;;;5054706;28;20033;-79
2023/08/15 10:26:23;;;;;;;2.92;1.75;;;14.00;79.40;;;;;;5053805;28;20056;-80
2023/08/15 10:28:51;;;;;;;2.85;1.40;;;14.00;79.20;;;;;;5054912;28;20029;-79
2023/08/15 10:31:36;;;;;;;3.60;1.50;;;14.00;79.50;;;;;;5054810;28;20021;-79
2023/08/15 10:34:10;;;;;;;3.20;1.33;;;13.90;79.40;;;;;;5054615;28;20043;-79
2023/08/15 10:36:44;;;;;;;4.38;1.20;;;13.90;79.20;;;;;;5054530;28;20048;-79
2023/08/15 10:39:15;;;;;;;2.35;1.30;;;13.80;79.30;;;;;;5054826;28;20021;-80
2023/08/15 10:41:43;;;;;;;1.85;1.13;;;13.80;79.40;;;;;;5053286;28;20020;-88
2023/08/15 10:44:10;;;;;;;2.00;1.38;;;13.70;80.20;;;;;;5054597;28;20078;-85
2023/08/15 10:46:39;;;;;;;1.98;1.30;;;13.70;80.10;;;;;;5054703;28;20372;-79
2023/08/15 10:49:11;;;;;;;2.83;1.20;;;13.70;80.10;;;;;;5054626;28;20095;-78
2023/08/15 10:51:40;;;;;;;5.45;1.45;;;13.70;80.00;;;;;;5054416;28;20132;-81
2023/08/15 10:54:16;;;;;;;4.85;1.50;;;13.70;80.20;;;;;;5055861;28;20029;-78
2023/08/15 10:56:44;;;;;;;3.08;1.45;;;13.60;80.30;;;;;;5054580;28;20371;-79
2023/08/15 10:59:18;;;;;;;3.15;1.27;;;13.60;80.30;;;;;;5053863;28;20426;-88
2023/08/15 11:01:46;;;;;;;3.13;1.30;;;13.60;80.50;;;;;;5053878;28;20021;-85
2023/08/15 11:04:19;;;;;;;4.22;1.10;;;13.60;80.60;;;;;;5054640;28;20063;-79
2023/08/15 11:06:53;;;;;;;1.45;0.93;;;13.60;80.70;;;;;;5054308;28;20025;-79
2023/08/15 11:09:31;;;;;;;1.85;0.90;;;13.50;80.90;;;;;;5054428;28;20376;-88
2023/08/15 11:12:12;;;;;;;3.75;1.10;;;13.60;81.00;;;;;;5055424;28;20029;-90
2023/08/15 11:14:39;;;;;;;1.95;1.05;;;13.60;81.00;;;;;;5054615;28;20033;-80
2023/08/15 11:17:07;;;;;;;3.45;1.08;;;13.60;81.00;;;;;;5054390;28;20422;-80
2023/08/15 11:19:35;;;;;;;1.55;1.13;;;13.50;81.00;;;;;;5054135;28;20048;-77
2023/08/15 11:22:02;;;;;;;1.67;0.80;;;13.50;81.20;;;;;;5053664;28;20085;-82
2023/08/15 11:24:32;;;;;;;1.60;0.82;;;13.50;81.50;;;;;;5053697;28;20036;-84
2023/08/15 11:27:01;;;;;;;2.35;0.85;;;13.50;81.50;;;;;;5054094;28;20028;-83
2023/08/15 11:29:29;;;;;;;1.27;0.90;;;13.50;81.50;;;;;;5053788;28;20037;-83
2023/08/15 11:31:59;;;;;;;1.98;0.98;;;13.50;81.50;;;;;;5053764;28;20103;-80
2023/08/15 11:34:26;;;;;;;2.30;1.13;;;13.40;81.60;;;;;;5053763;28;20037;-83
2023/08/15 11:36:54;;;;;;;2.92;1.02;;;13.40;81.60;;;;;;5053868;28;20040;-84
2023/08/15 11:39:21;;;;;;;2.47;0.98;;;13.40;81.80;;;;;;5053868;28;20028;-84
2023/08/15 11:41:49;;;;;;;2.50;0.82;;;13.50;81.80;;;;;;5053521;28;20017;-85
2023/08/15 11:44:29;;;;;;;3.17;1.17;;;13.50;81.70;;;;;;5053485;28;20024;-85
2023/08/15 11:46:57;;;;;;;3.30;1.15;;;13.40;81.70;;;;;;5053768;28;20032;-84
2023/08/15 11:49:25;;;;;;;2.03;1.17;;;13.40;81.70;;;;;;5053461;28;20044;-82
2023/08/15 11:52:05;;;;;;;3.78;1.30;;;13.30;81.70;;;;;;5053137;28;20025;-85
2023/08/15 11:54:32;;;;;;;3.63;1.30;;;13.30;81.80;;;;;;5053279;28;20033;-85
2023/08/15 11:56:59;;;;;;;1.98;1.30;;;13.30;81.90;;;;;;5053246;28;20028;-85
2023/08/15 11:59:27;;;;;;;2.88;1.25;;;13.30;82.10;;;;;;5053166;28;20021;-84
2023/08/15 12:01:55;;;;;;;2.33;1.38;;;13.30;82.00;;;;;;5052916;28;20025;-84
2023/08/15 12:04:23;;;;;;;2.33;1.10;;;13.20;82.10;;;;;;5053178;28;20463;-86
2023/08/15 12:06:51;;;;;;;2.88;1.77;;;13.30;82.20;;;;;;5068294;28;20044;-85
2023/08/15 12:09:28;;;;;;;3.40;1.20;;;13.20;82.10;;;;;;5053147;28;20427;-86
2023/08/15 12:11:56;;;;;;;3.65;1.15;;;13.20;82.10;;;;;;5052294;28;20364;-85
2023/08/15 12:14:26;;;;;;;1.85;1.10;;;13.20;82.30;;;;;;5053001;28;20021;-86
2023/08/15 12:16:54;;;;;;;2.15;1.45;;;13.20;82.50;;;;;;5053142;28;20029;-85
2023/08/15 12:19:23;;;;;;;4.13;1.30;;;13.20;82.40;;;;;;5052421;28;20041;-83
2023/08/15 12:21:51;;;;;;;2.72;1.15;;;13.20;82.40;;;;;;5050761;28;20021;-83
2023/08/15 12:24:19;;;;;;;1.75;1.10;;;13.20;82.30;;;;;;5050905;28;20112;-84
2023/08/15 12:26:46;;;;;;;4.13;1.33;;;13.20;82.20;;;;;;5050975;28;20035;-85
2023/08/15 12:29:14;;;;;;;1.88;1.00;;;13.20;82.50;;;;;;5049663;28;20473;-84
2023/08/15 12:31:41;;;;;;;5.28;1.00;;;13.20;82.40;;;;;;5050604;28;20020;-84
2023/08/15 12:34:08;;;;;;;2.53;1.00;;;13.10;82.60;;;;;;5049641;28;20237;-83
2023/08/15 12:36:36;;;;;;;3.40;0.88;;;13.20;82.50;;;;;;5051533;28;20025;-85
2023/08/15 12:39:03;;;;;;;2.13;0.90;;;13.10;82.60;;;;;;5052810;28;20029;-86
2023/08/15 12:41:31;;;;;;;1.33;0.90;;;13.10;82.50;;;;;;5052711;28;20021;-85
2023/08/15 12:43:59;;;;;;;1.75;0.90;;;13.10;82.70;;;;;;5052612;28;20056;-84
2023/08/15 12:46:26;;;;;;;2.63;1.10;;;13.00;82.70;;;;;;5052618;28;20025;-83
2023/08/15 12:48:58;;;;;;;5.35;1.42;;;13.00;82.90;;;;;;5052645;28;20368;-86
2023/08/15 12:51:26;;;;;;;4.57;1.35;;;13.00;83.00;;;;;;5052685;28;20018;-85
2023/08/15 12:53:53;;;;;;;4.00;1.35;;;12.90;83.00;;;;;;5052384;28;20110;-84
2023/08/15 12:56:20;;;;;;;2.25;1.30;;;12.90;83.00;;;;;;5052585;28;20039;-84
2023/08/15 12:58:48;;;;;;;2.00;1.40;;;12.80;82.90;;;;;;5052113;28;20067;-77